sensor_id;sensor_type;location;lat;lon;timestamp;pressure;altitude;pressure_sealevel;temperature;humidity
75418;BME280;63997;52.112;5.420;2023-03-31T00:01:49;100452.69;;;9.43;87.54
75418;BME280;63997;52.112;5.420;2023-03-31T00:04:18;100445.78;;;9.42;87.77
75418;BME280;63997;52.112;5.420;2023-03-31T00:06:49;100441.41;;;9.46;87.68
75418;BME280;63997;52.112;5.420;2023-03-31T00:09:19;100442.84;;;9.43;87.81
75418;BME280;63997;52.112;5.420;2023-03-31T00:11:48;100433.00;;;9.44;88.12
75418;BME280;63997;52.112;5.420;2023-03-31T00:14:16;100425.03;;;9.44;88.15
75418;BME280;63997;52.112;5.420;2023-03-31T00:16:44;100424.38;;;9.47;88.33
75418;BME280;63997;52.112;5.420;2023-03-31T00:19:12;100423.28;;;9.48;88.58
75418;BME280;63997;52.112;5.420;2023-03-31T00:21:46;100420.00;;;9.51;88.37
75418;BME280;63997;52.112;5.420;2023-03-31T00:24:14;100409.03;;;9.52;88.58
75418;BME280;63997;52.112;5.420;2023-03-31T00:26:41;100409.19;;;9.56;88.60
75418;BME280;63997;52.112;5.420;2023-03-31T00:29:10;100401.22;;;9.56;88.51
75418;BME280;63997;52.112;5.420;2023-03-31T00:31:37;100403.09;;;9.56;88.61
75418;BME280;63997;52.112;5.420;2023-03-31T00:34:05;100382.78;;;9.60;88.64
75418;BME280;63997;52.112;5.420;2023-03-31T00:36:31;100384.00;;;9.62;88.44
75418;BME280;63997;52.112;5.420;2023-03-31T00:39:04;100376.94;;;9.66;88.47
75418;BME280;63997;52.112;5.420;2023-03-31T00:41:37;100370.88;;;9.66;88.25
75418;BME280;63997;52.112;5.420;2023-03-31T00:46:41;100362.56;;;9.67;88.56
75418;BME280;63997;52.112;5.420;2023-03-31T00:49:24;100360.69;;;9.68;88.73
75418;BME280;63997;52.112;5.420;2023-03-31T00:51:53;100351.94;;;9.67;88.61
75418;BME280;63997;52.112;5.420;2023-03-31T00:54:22;100353.50;;;9.68;88.69
75418;BME280;63997;52.112;5.420;2023-03-31T00:56:54;100343.31;;;9.70;88.76
75418;BME280;63997;52.112;5.420;2023-03-31T00:59:27;100341.13;;;9.72;88.62
75418;BME280;63997;52.112;5.420;2023-03-31T01:01:55;100341.56;;;9.74;88.69
75418;BME280;63997;52.112;5.420;2023-03-31T01:04:24;100336.75;;;9.76;88.68
75418;BME280;63997;52.112;5.420;2023-03-31T01:06:57;100333.41;;;9.79;88.65
75418;BME280;63997;52.112;5.420;2023-03-31T01:09:28;100327.47;;;9.83;88.89
75418;BME280;63997;52.112;5.420;2023-03-31T01:12:06;100318.38;;;9.84;88.72
75418;BME280;63997;52.112;5.420;2023-03-31T01:14:34;100323.03;;;9.87;88.98
75418;BME280;63997;52.112;5.420;2023-03-31T01:17:00;100312.88;;;9.89;89.00
75418;BME280;63997;52.112;5.420;2023-03-31T01:20:04;100301.91;;;9.90;89.80
75418;BME280;63997;52.112;5.420;2023-03-31T01:36:42;100256.31;;;9.88;90.76
75418;BME280;63997;52.112;5.420;2023-03-31T01:42:06;100238.38;;;9.85;91.31
75418;BME280;63997;52.112;5.420;2023-03-31T01:47:45;100236.06;;;9.84;91.61
75418;BME280;63997;52.112;5.420;2023-03-31T01:50:30;100226.53;;;9.83;91.77
75418;BME280;63997;52.112;5.420;2023-03-31T01:53:05;100215.94;;;9.83;91.80
75418;BME280;63997;52.112;5.420;2023-03-31T01:55:38;100213.56;;;9.81;92.18
75418;BME280;63997;52.112;5.420;2023-03-31T02:00:49;100203.72;;;9.81;92.27
75418;BME280;63997;52.112;5.420;2023-03-31T02:03:28;100199.22;;;9.82;91.96
75418;BME280;63997;52.112;5.420;2023-03-31T02:06:04;100194.69;;;9.83;92.29
75418;BME280;63997;52.112;5.420;2023-03-31T02:08:38;100188.69;;;9.86;92.35
75418;BME280;63997;52.112;5.420;2023-03-31T02:11:06;100174.78;;;9.89;92.11
75418;BME280;63997;52.112;5.420;2023-03-31T02:13:33;100176.75;;;9.92;92.12
75418;BME280;63997;52.112;5.420;2023-03-31T02:16:07;100170.78;;;9.95;92.36
75418;BME280;63997;52.112;5.420;2023-03-31T02:18:36;100161.38;;;9.97;92.06
75418;BME280;63997;52.112;5.420;2023-03-31T02:21:04;100153.53;;;10.01;92.26
75418;BME280;63997;52.112;5.420;2023-03-31T02:23:35;100154.72;;;10.03;91.99
75418;BME280;63997;52.112;5.420;2023-03-31T02:26:18;100147.53;;;10.04;91.88
75418;BME280;63997;52.112;5.420;2023-03-31T02:28:46;100142.34;;;10.07;91.79
75418;BME280;63997;52.112;5.420;2023-03-31T02:34:17;100118.22;;;10.13;91.67
75418;BME280;63997;52.112;5.420;2023-03-31T02:36:44;100115.22;;;10.14;91.74
75418;BME280;63997;52.112;5.420;2023-03-31T02:39:15;100107.25;;;10.14;91.79
75418;BME280;63997;52.112;5.420;2023-03-31T02:41:43;100111.44;;;10.15;91.92
75418;BME280;63997;52.112;5.420;2023-03-31T02:44:10;100095.50;;;10.15;91.65
75418;BME280;63997;52.112;5.420;2023-03-31T02:46:37;100094.41;;;10.16;91.95
75418;BME280;63997;52.112;5.420;2023-03-31T02:49:06;100091.00;;;10.16;91.70
75418;BME280;63997;52.112;5.420;2023-03-31T03:09:12;100020.47;;;10.06;92.26
75418;BME280;63997;52.112;5.420;2023-03-31T03:11:53;100020.03;;;10.04;92.09
75418;BME280;63997;52.112;5.420;2023-03-31T03:17:22;100002.88;;;10.01;91.95
75418;BME280;63997;52.112;5.420;2023-03-31T03:19:56;100010.09;;;10.01;91.99
75418;BME280;63997;52.112;5.420;2023-03-31T03:22:24;100001.69;;;9.99;92.04
75418;BME280;63997;52.112;5.420;2023-03-31T03:24:50;99995.91;;;9.97;91.94
75418;BME280;63997;52.112;5.420;2023-03-31T03:27:18;99989.06;;;9.96;91.95
75418;BME280;63997;52.112;5.420;2023-03-31T03:29:44;99994.72;;;9.94;91.97
75418;BME280;63997;52.112;5.420;2023-03-31T03:32:10;99992.38;;;9.93;91.98
75418;BME280;63997;52.112;5.420;2023-03-31T03:34:37;99979.00;;;9.89;92.15
75418;BME280;63997;52.112;5.420;2023-03-31T03:37:03;99980.13;;;9.88;92.15
75418;BME280;63997;52.112;5.420;2023-03-31T03:39:30;99972.47;;;9.87;92.36
75418;BME280;63997;52.112;5.420;2023-03-31T03:41:56;99969.03;;;9.86;92.50
75418;BME280;63997;52.112;5.420;2023-03-31T03:44:23;99952.69;;;9.84;92.41
75418;BME280;63997;52.112;5.420;2023-03-31T03:46:49;99936.31;;;9.82;92.75
75418;BME280;63997;52.112;5.420;2023-03-31T03:49:16;99927.13;;;9.79;92.83
75418;BME280;63997;52.112;5.420;2023-03-31T03:51:42;99931.66;;;9.79;92.67
75418;BME280;63997;52.112;5.420;2023-03-31T03:54:09;99930.47;;;9.76;93.03
75418;BME280;63997;52.112;5.420;2023-03-31T03:56:35;99925.16;;;9.76;92.94
75418;BME280;63997;52.112;5.420;2023-03-31T03:59:02;99920.16;;;9.75;92.94
75418;BME280;63997;52.112;5.420;2023-03-31T04:01:28;99914.44;;;9.73;93.23
75418;BME280;63997;52.112;5.420;2023-03-31T04:03:54;99915.84;;;9.70;93.20
75418;BME280;63997;52.112;5.420;2023-03-31T04:06:21;99909.00;;;9.69;93.11
75418;BME280;63997;52.112;5.420;2023-03-31T04:08:47;99902.16;;;9.68;93.24
75418;BME280;63997;52.112;5.420;2023-03-31T04:11:16;99909.69;;;9.66;93.11
75418;BME280;63997;52.112;5.420;2023-03-31T04:13:45;99888.75;;;9.65;93.25
75418;BME280;63997;52.112;5.420;2023-03-31T04:16:11;99880.38;;;9.63;93.04
75418;BME280;63997;52.112;5.420;2023-03-31T04:18:38;99873.88;;;9.60;92.70
75418;BME280;63997;52.112;5.420;2023-03-31T04:21:12;99868.88;;;9.59;92.74
75418;BME280;63997;52.112;5.420;2023-03-31T04:23:41;99856.28;;;9.56;92.58
75418;BME280;63997;52.112;5.420;2023-03-31T04:26:13;99842.56;;;9.53;92.96
75418;BME280;63997;52.112;5.420;2023-03-31T04:28:40;99837.59;;;9.52;92.89
75418;BME280;63997;52.112;5.420;2023-03-31T04:31:09;99818.59;;;9.50;92.92
75418;BME280;63997;52.112;5.420;2023-03-31T04:33:35;99820.47;;;9.49;92.86
75418;BME280;63997;52.112;5.420;2023-03-31T04:36:07;99814.41;;;9.49;92.95
75418;BME280;63997;52.112;5.420;2023-03-31T04:38:47;99798.03;;;9.47;93.22
75418;BME280;63997;52.112;5.420;2023-03-31T04:41:16;99794.59;;;9.46;93.15
75418;BME280;63997;52.112;5.420;2023-03-31T04:43:42;99782.44;;;9.45;93.09
75418;BME280;63997;52.112;5.420;2023-03-31T04:46:09;99779.44;;;9.47;93.18
75418;BME280;63997;52.112;5.420;2023-03-31T04:48:35;99787.84;;;9.49;93.54
75418;BME280;63997;52.112;5.420;2023-03-31T04:51:02;99769.28;;;9.49;93.63
75418;BME280;63997;52.112;5.420;2023-03-31T04:53:29;99763.63;;;9.50;93.55
75418;BME280;63997;52.112;5.420;2023-03-31T04:55:55;99761.41;;;9.52;93.72
75418;BME280;63997;52.112;5.420;2023-03-31T04:58:21;99765.28;;;9.55;93.68
75418;BME280;63997;52.112;5.420;2023-03-31T05:00:48;99755.44;;;9.56;94.04
75418;BME280;63997;52.112;5.420;2023-03-31T05:03:14;99755.84;;;9.58;93.96
75418;BME280;63997;52.112;5.420;2023-03-31T05:05:41;99744.88;;;9.59;94.04
75418;BME280;63997;52.112;5.420;2023-03-31T05:08:07;99744.88;;;9.59;94.21
75418;BME280;63997;52.112;5.420;2023-03-31T05:10:34;99743.78;;;9.60;94.04
75418;BME280;63997;52.112;5.420;2023-03-31T05:13:00;99732.41;;;9.60;94.06
75418;BME280;63997;52.112;5.420;2023-03-31T05:15:26;99722.56;;;9.60;94.08
75418;BME280;63997;52.112;5.420;2023-03-31T05:17:53;99721.44;;;9.61;94.17
75418;BME280;63997;52.112;5.420;2023-03-31T05:20:19;99715.03;;;9.62;94.19
75418;BME280;63997;52.112;5.420;2023-03-31T05:22:46;99707.06;;;9.62;94.00
75418;BME280;63997;52.112;5.420;2023-03-31T05:25:13;99710.91;;;9.65;93.75
75418;BME280;63997;52.112;5.420;2023-03-31T05:27:47;99699.50;;;9.64;93.89
75418;BME280;63997;52.112;5.420;2023-03-31T05:30:14;99703.75;;;9.65;94.00
75418;BME280;63997;52.112;5.420;2023-03-31T05:32:41;99701.84;;;9.66;93.99
75418;BME280;63997;52.112;5.420;2023-03-31T05:35:08;99693.53;;;9.67;93.96
75418;BME280;63997;52.112;5.420;2023-03-31T05:37:34;99690.53;;;9.69;94.06
75418;BME280;63997;52.112;5.420;2023-03-31T05:40:01;99685.22;;;9.69;93.89
75418;BME280;63997;52.112;5.420;2023-03-31T05:42:30;99687.88;;;9.69;94.06
75418;BME280;63997;52.112;5.420;2023-03-31T05:44:56;99678.03;;;9.69;93.85
75418;BME280;63997;52.112;5.420;2023-03-31T05:47:22;99676.91;;;9.70;93.92
75418;BME280;63997;52.112;5.420;2023-03-31T05:49:49;99673.16;;;9.71;93.90
75418;BME280;63997;52.112;5.420;2023-03-31T05:52:16;99660.31;;;9.73;93.59
75418;BME280;63997;52.112;5.420;2023-03-31T05:54:42;99667.16;;;9.74;93.66
75418;BME280;63997;52.112;5.420;2023-03-31T05:57:09;99660.31;;;9.73;93.51
75418;BME280;63997;52.112;5.420;2023-03-31T05:59:37;99654.66;;;9.75;93.52
75418;BME280;63997;52.112;5.420;2023-03-31T06:02:03;99657.00;;;9.76;93.52
75418;BME280;63997;52.112;5.420;2023-03-31T06:04:30;99655.09;;;9.77;93.77
75418;BME280;63997;52.112;5.420;2023-03-31T06:06:59;99659.28;;;9.78;93.39
75418;BME280;63997;52.112;5.420;2023-03-31T06:09:26;99653.63;;;9.79;93.46
75418;BME280;63997;52.112;5.420;2023-03-31T06:11:53;99641.91;;;9.80;93.33
75418;BME280;63997;52.112;5.420;2023-03-31T06:14:19;99648.75;;;9.81;93.42
75418;BME280;63997;52.112;5.420;2023-03-31T06:16:46;99643.88;;;9.84;93.22
75418;BME280;63997;52.112;5.420;2023-03-31T06:19:13;99639.34;;;9.84;92.99
75418;BME280;63997;52.112;5.420;2023-03-31T06:21:39;99627.25;;;9.87;92.71
75418;BME280;63997;52.112;5.420;2023-03-31T06:24:07;99638.31;;;9.89;92.85
75418;BME280;63997;52.112;5.420;2023-03-31T06:26:34;99634.88;;;9.88;92.79
75418;BME280;63997;52.112;5.420;2023-03-31T06:29:01;99627.00;;;9.92;92.54
75418;BME280;63997;52.112;5.420;2023-03-31T06:31:27;99631.97;;;9.93;92.29
75418;BME280;63997;52.112;5.420;2023-03-31T06:33:54;99610.78;;;9.97;91.94
75418;BME280;63997;52.112;5.420;2023-03-31T06:36:21;99623.13;;;10.05;91.82
75418;BME280;63997;52.112;5.420;2023-03-31T06:38:49;99626.31;;;10.11;91.85
75418;BME280;63997;52.112;5.420;2023-03-31T06:41:17;99613.34;;;10.09;91.42
75418;BME280;63997;52.112;5.420;2023-03-31T06:43:43;99617.13;;;10.08;91.15
75418;BME280;63997;52.112;5.420;2023-03-31T06:46:10;99614.09;;;10.10;91.24
75418;BME280;63997;52.112;5.420;2023-03-31T06:48:37;99606.94;;;10.10;91.20
75418;BME280;63997;52.112;5.420;2023-03-31T06:51:05;99610.38;;;10.11;91.00
75418;BME280;63997;52.112;5.420;2023-03-31T06:53:32;99614.91;;;10.10;91.06
75418;BME280;63997;52.112;5.420;2023-03-31T06:55:59;99605.06;;;10.11;90.84
75418;BME280;63997;52.112;5.420;2023-03-31T06:58:25;99609.59;;;10.10;90.90
75418;BME280;63997;52.112;5.420;2023-03-31T07:00:56;99601.19;;;10.08;90.75
75418;BME280;63997;52.112;5.420;2023-03-31T07:03:22;99606.50;;;10.08;91.03
75418;BME280;63997;52.112;5.420;2023-03-31T07:05:51;99601.94;;;10.08;91.01
75418;BME280;63997;52.112;5.420;2023-03-31T07:08:18;99588.34;;;10.10;91.17
75418;BME280;63997;52.112;5.420;2023-03-31T07:10:45;99598.19;;;10.10;90.99
75418;BME280;63997;52.112;5.420;2023-03-31T07:13:15;99595.50;;;10.10;91.06
75418;BME280;63997;52.112;5.420;2023-03-31T07:15:43;99593.66;;;10.10;91.15
75418;BME280;63997;52.112;5.420;2023-03-31T07:18:12;99587.53;;;10.10;91.00
75418;BME280;63997;52.112;5.420;2023-03-31T07:20:41;99587.22;;;10.11;91.02
75418;BME280;63997;52.112;5.420;2023-03-31T07:23:07;99602.81;;;10.13;91.27
75418;BME280;63997;52.112;5.420;2023-03-31T07:25:35;99597.84;;;10.11;91.08
75418;BME280;63997;52.112;5.420;2023-03-31T07:28:02;99587.53;;;10.10;91.29
75418;BME280;63997;52.112;5.420;2023-03-31T07:30:28;99583.03;;;10.10;91.58
75418;BME280;63997;52.112;5.420;2023-03-31T07:32:55;99583.44;;;10.12;91.60
75418;BME280;63997;52.112;5.420;2023-03-31T07:35:21;99582.31;;;10.13;91.64
75418;BME280;63997;52.112;5.420;2023-03-31T07:37:49;99578.53;;;10.14;91.79
75418;BME280;63997;52.112;5.420;2023-03-31T07:40:21;99584.31;;;10.16;91.79
75418;BME280;63997;52.112;5.420;2023-03-31T07:42:48;99573.69;;;10.16;91.81
75418;BME280;63997;52.112;5.420;2023-03-31T07:45:19;99573.31;;;10.18;91.93
75418;BME280;63997;52.112;5.420;2023-03-31T07:47:46;99566.88;;;10.19;91.74
75418;BME280;63997;52.112;5.420;2023-03-31T07:50:14;99568.53;;;10.23;91.87
75418;BME280;63997;52.112;5.420;2023-03-31T07:52:41;99578.91;;;10.28;92.19
75418;BME280;63997;52.112;5.420;2023-03-31T07:55:10;99556.88;;;10.28;91.80
75418;BME280;63997;52.112;5.420;2023-03-31T07:57:37;99562.25;;;10.31;91.85
75418;BME280;63997;52.112;5.420;2023-03-31T08:00:04;99569.13;;;10.32;91.82
75418;BME280;63997;52.112;5.420;2023-03-31T08:02:34;99557.63;;;10.28;91.91
75418;BME280;63997;52.112;5.420;2023-03-31T08:05:01;99558.31;;;10.25;91.85
75418;BME280;63997;52.112;5.420;2023-03-31T08:07:28;99550.69;;;10.24;91.87
75418;BME280;63997;52.112;5.420;2023-03-31T08:09:56;99556.00;;;10.24;92.20
75418;BME280;63997;52.112;5.420;2023-03-31T08:12:23;99555.66;;;10.25;92.44
75418;BME280;63997;52.112;5.420;2023-03-31T08:14:49;99547.69;;;10.25;92.28
75418;BME280;63997;52.112;5.420;2023-03-31T08:17:16;99544.75;;;10.30;92.79
75418;BME280;63997;52.112;5.420;2023-03-31T08:19:42;99545.69;;;10.38;92.87
75418;BME280;63997;52.112;5.420;2023-03-31T08:22:08;99540.44;;;10.42;92.90
75418;BME280;63997;52.112;5.420;2023-03-31T08:24:35;99532.19;;;10.47;92.88
75418;BME280;63997;52.112;5.420;2023-03-31T08:27:01;99529.25;;;10.52;92.71
75418;BME280;63997;52.112;5.420;2023-03-31T08:29:27;99525.88;;;10.55;92.50
75418;BME280;63997;52.112;5.420;2023-03-31T08:31:55;99529.31;;;10.55;92.43
75418;BME280;63997;52.112;5.420;2023-03-31T08:34:21;99526.22;;;10.53;92.19
75418;BME280;63997;52.112;5.420;2023-03-31T08:36:48;99521.69;;;10.54;92.22
75418;BME280;63997;52.112;5.420;2023-03-31T08:39:14;99521.75;;;10.57;92.10
75418;BME280;63997;52.112;5.420;2023-03-31T08:41:56;99517.97;;;10.58;92.15
75418;BME280;63997;52.112;5.420;2023-03-31T08:44:31;99515.81;;;10.64;91.79
75418;BME280;63997;52.112;5.420;2023-03-31T08:47:01;99512.56;;;10.74;91.70
75418;BME280;63997;52.112;5.420;2023-03-31T08:49:35;99505.84;;;10.80;91.53
75418;BME280;63997;52.112;5.420;2023-03-31T08:52:05;99513.25;;;10.91;91.91
75418;BME280;63997;52.112;5.420;2023-03-31T08:54:43;99511.06;;;10.96;91.28
75418;BME280;63997;52.112;5.420;2023-03-31T08:57:16;99507.34;;;11.01;90.68
75418;BME280;63997;52.112;5.420;2023-03-31T08:59:45;99496.00;;;11.04;90.68
75418;BME280;63997;52.112;5.420;2023-03-31T09:05:01;99502.56;;;11.10;90.33
75418;BME280;63997;52.112;5.420;2023-03-31T09:07:44;99493.81;;;11.09;90.22
75418;BME280;63997;52.112;5.420;2023-03-31T09:10:37;99496.09;;;11.11;90.59
75418;BME280;63997;52.112;5.420;2023-03-31T09:15:39;99481.72;;;11.16;90.54
75418;BME280;63997;52.112;5.420;2023-03-31T09:18:27;99481.06;;;11.22;90.59
75418;BME280;63997;52.112;5.420;2023-03-31T09:21:01;99480.78;;;11.27;90.47
75418;BME280;63997;52.112;5.420;2023-03-31T09:23:38;99482.84;;;11.37;90.42
75418;BME280;63997;52.112;5.420;2023-03-31T09:26:13;99474.63;;;11.46;89.93
75418;BME280;63997;52.112;5.420;2023-03-31T09:28:42;99472.81;;;11.54;89.57
75418;BME280;63997;52.112;5.420;2023-03-31T09:31:13;99461.91;;;11.62;88.58
75418;BME280;63997;52.112;5.420;2023-03-31T09:33:45;99465.13;;;11.75;89.21
75418;BME280;63997;52.112;5.420;2023-03-31T09:36:20;99461.59;;;11.94;88.79
75418;BME280;63997;52.112;5.420;2023-03-31T09:38:49;99463.19;;;11.99;88.19
75418;BME280;63997;52.112;5.420;2023-03-31T09:41:16;99454.03;;;11.96;87.35
75418;BME280;63997;52.112;5.420;2023-03-31T09:43:45;99450.16;;;11.94;87.51
75418;BME280;63997;52.112;5.420;2023-03-31T09:46:36;99450.78;;;11.83;87.16
75418;BME280;63997;52.112;5.420;2023-03-31T09:49:17;99457.34;;;11.89;87.30
75418;BME280;63997;52.112;5.420;2023-03-31T09:51:47;99455.50;;;11.94;87.04
75418;BME280;63997;52.112;5.420;2023-03-31T09:54:27;99461.56;;;11.90;86.64
75418;BME280;63997;52.112;5.420;2023-03-31T09:56:56;99450.91;;;11.90;87.07
75418;BME280;63997;52.112;5.420;2023-03-31T09:59:31;99446.47;;;12.02;87.15
75418;BME280;63997;52.112;5.420;2023-03-31T10:02:01;99443.56;;;12.14;86.53
75418;BME280;63997;52.112;5.420;2023-03-31T10:04:31;99446.56;;;12.09;86.31
75418;BME280;63997;52.112;5.420;2023-03-31T10:07:00;99457.25;;;12.12;85.30
75418;BME280;63997;52.112;5.420;2023-03-31T10:09:31;99450.88;;;12.21;86.01
75418;BME280;63997;52.112;5.420;2023-03-31T10:12:03;99446.06;;;12.33;85.33
75418;BME280;63997;52.112;5.420;2023-03-31T10:14:44;99446.94;;;12.44;84.60
75418;BME280;63997;52.112;5.420;2023-03-31T10:17:16;99439.41;;;12.54;83.13
75418;BME280;63997;52.112;5.420;2023-03-31T10:19:51;99436.16;;;12.71;81.82
75418;BME280;63997;52.112;5.420;2023-03-31T10:24:49;99424.66;;;13.11;83.03
75418;BME280;63997;52.112;5.420;2023-03-31T10:27:22;99420.94;;;13.19;80.56
75418;BME280;63997;52.112;5.420;2023-03-31T10:29:57;99436.09;;;13.08;80.05
75418;BME280;63997;52.112;5.420;2023-03-31T10:32:32;99429.88;;;12.93;79.89
75418;BME280;63997;52.112;5.420;2023-03-31T10:35:07;99428.31;;;12.89;80.42
75418;BME280;63997;52.112;5.420;2023-03-31T10:37:36;99419.19;;;12.93;80.34
75418;BME280;63997;52.112;5.420;2023-03-31T10:40:12;99408.22;;;13.06;79.05
75418;BME280;63997;52.112;5.420;2023-03-31T10:42:39;99406.34;;;13.10;79.14
75418;BME280;63997;52.112;5.420;2023-03-31T10:45:26;99397.94;;;13.04;77.42
75418;BME280;63997;52.112;5.420;2023-03-31T10:48:03;99404.75;;;13.02;77.81
75418;BME280;63997;52.112;5.420;2023-03-31T10:50:35;99408.16;;;12.95;78.04
75418;BME280;63997;52.112;5.420;2023-03-31T10:53:10;99399.78;;;12.96;78.80
75418;BME280;63997;52.112;5.420;2023-03-31T10:55:43;99398.56;;;12.87;77.54
75418;BME280;63997;52.112;5.420;2023-03-31T10:58:56;99410.19;;;12.68;77.63
75418;BME280;63997;52.112;5.420;2023-03-31T11:01:50;99405.94;;;12.60;79.17
75418;BME280;63997;52.112;5.420;2023-03-31T11:04:55;99401.38;;;12.60;79.45
75418;BME280;63997;52.112;5.420;2023-03-31T11:07:58;99405.94;;;12.60;79.76
75418;BME280;63997;52.112;5.420;2023-03-31T11:15:55;99400.13;;;12.47;81.13
75418;BME280;63997;52.112;5.420;2023-03-31T11:18:35;99396.69;;;12.47;80.96
75418;BME280;63997;52.112;5.420;2023-03-31T11:21:12;99399.03;;;12.52;80.56
75418;BME280;63997;52.112;5.420;2023-03-31T11:29:18;99389.09;;;12.49;81.86
75418;BME280;63997;52.112;5.420;2023-03-31T11:42:52;99384.56;;;12.56;79.79
75418;BME280;63997;52.112;5.420;2023-03-31T11:45:24;99391.09;;;12.59;80.18
75418;BME280;63997;52.112;5.420;2023-03-31T11:47:55;99389.03;;;12.45;80.12
75418;BME280;63997;52.112;5.420;2023-03-31T11:50:27;99391.97;;;12.29;81.67
75418;BME280;63997;52.112;5.420;2023-03-31T11:52:59;99388.69;;;12.09;81.74
75418;BME280;63997;52.112;5.420;2023-03-31T11:55:28;99391.25;;;11.99;83.16
75418;BME280;63997;52.112;5.420;2023-03-31T11:58:11;99383.94;;;11.92;84.41
75418;BME280;63997;52.112;5.420;2023-03-31T12:00:43;99387.69;;;11.87;84.36
75418;BME280;63997;52.112;5.420;2023-03-31T12:03:19;99393.75;;;11.84;85.14
75418;BME280;63997;52.112;5.420;2023-03-31T12:05:51;99387.16;;;11.78;85.24
75418;BME280;63997;52.112;5.420;2023-03-31T12:08:36;99387.94;;;11.79;85.61
75418;BME280;63997;52.112;5.420;2023-03-31T12:11:09;99388.66;;;11.76;86.00
75418;BME280;63997;52.112;5.420;2023-03-31T12:14:03;99379.91;;;11.75;85.86
75418;BME280;63997;52.112;5.420;2023-03-31T12:16:39;99365.06;;;11.74;85.74
75418;BME280;63997;52.112;5.420;2023-03-31T12:19:17;99361.22;;;11.72;85.51
75418;BME280;63997;52.112;5.420;2023-03-31T12:21:55;99350.09;;;11.62;85.32
75418;BME280;63997;52.112;5.420;2023-03-31T12:24:23;99353.81;;;11.58;84.75
75418;BME280;63997;52.112;5.420;2023-03-31T12:27:02;99362.13;;;11.53;84.49
75418;BME280;63997;52.112;5.420;2023-03-31T12:29:37;99360.63;;;11.55;85.20
75418;BME280;63997;52.112;5.420;2023-03-31T12:32:16;99355.81;;;11.64;85.79
75418;BME280;63997;52.112;5.420;2023-03-31T12:35:00;99358.91;;;11.70;86.07
75418;BME280;63997;52.112;5.420;2023-03-31T12:40:49;99347.88;;;11.68;85.16
75418;BME280;63997;52.112;5.420;2023-03-31T12:46:41;99349.94;;;11.52;85.71
75418;BME280;63997;52.112;5.420;2023-03-31T12:49:18;99349.03;;;11.41;86.02
75418;BME280;63997;52.112;5.420;2023-03-31T12:51:56;99344.44;;;11.37;86.90
75418;BME280;63997;52.112;5.420;2023-03-31T12:54:48;99337.66;;;11.44;86.60
75418;BME280;63997;52.112;5.420;2023-03-31T12:57:21;99331.72;;;11.54;87.09
75418;BME280;63997;52.112;5.420;2023-03-31T13:02:38;99328.03;;;11.65;87.55
75418;BME280;63997;52.112;5.420;2023-03-31T13:08:09;99318.88;;;11.63;86.78
75418;BME280;63997;52.112;5.420;2023-03-31T13:10:57;99304.50;;;11.71;87.35
75418;BME280;63997;52.112;5.420;2023-03-31T13:13:24;99299.34;;;11.82;87.38
75418;BME280;63997;52.112;5.420;2023-03-31T13:15:53;99300.91;;;11.86;87.17
75418;BME280;63997;52.112;5.420;2023-03-31T13:18:21;99298.63;;;11.88;87.44
75418;BME280;63997;52.112;5.420;2023-03-31T13:21:02;99298.56;;;11.81;86.19
75418;BME280;63997;52.112;5.420;2023-03-31T13:23:35;99289.75;;;11.77;86.80
75418;BME280;63997;52.112;5.420;2023-03-31T13:26:03;99291.25;;;11.78;86.94
75418;BME280;63997;52.112;5.420;2023-03-31T13:28:40;99293.50;;;11.73;86.19
75418;BME280;63997;52.112;5.420;2023-03-31T13:31:12;99299.50;;;11.66;86.54
75418;BME280;63997;52.112;5.420;2023-03-31T13:33:46;99288.47;;;11.64;86.96
75418;BME280;63997;52.112;5.420;2023-03-31T13:38:57;99293.88;;;11.71;86.35
75418;BME280;63997;52.112;5.420;2023-03-31T13:41:39;99282.88;;;11.76;86.11
75418;BME280;63997;52.112;5.420;2023-03-31T13:47:22;99286.28;;;11.73;84.53
75418;BME280;63997;52.112;5.420;2023-03-31T13:55:52;99285.47;;;11.69;86.46
75418;BME280;63997;52.112;5.420;2023-03-31T13:58:39;99290.00;;;11.65;87.42
75418;BME280;63997;52.112;5.420;2023-03-31T14:07:26;99278.78;;;11.49;87.94
75418;BME280;63997;52.112;5.420;2023-03-31T14:09:54;99283.97;;;11.38;87.48
75418;BME280;63997;52.112;5.420;2023-03-31T14:12:36;99266.41;;;11.33;88.49
75418;BME280;63997;52.112;5.420;2023-03-31T14:15:05;99276.34;;;11.36;88.89
75418;BME280;63997;52.112;5.420;2023-03-31T14:17:37;99271.34;;;11.31;87.88
75418;BME280;63997;52.112;5.420;2023-03-31T14:25:45;99253.38;;;11.55;87.52
75418;BME280;63997;52.112;5.420;2023-03-31T14:28:28;99253.47;;;11.62;87.51
75418;BME280;63997;52.112;5.420;2023-03-31T14:34:11;99251.56;;;11.66;87.26
75418;BME280;63997;52.112;5.420;2023-03-31T14:36:59;99241.25;;;11.61;86.90
75418;BME280;63997;52.112;5.420;2023-03-31T14:39:43;99253.03;;;11.56;87.34
75418;BME280;63997;52.112;5.420;2023-03-31T14:42:13;99236.22;;;11.52;87.42
75418;BME280;63997;52.112;5.420;2023-03-31T14:44:41;99239.53;;;11.42;87.24
75418;BME280;63997;52.112;5.420;2023-03-31T14:47:14;99232.56;;;11.30;87.27
75418;BME280;63997;52.112;5.420;2023-03-31T14:49:41;99235.50;;;11.22;87.70
75418;BME280;63997;52.112;5.420;2023-03-31T14:52:19;99240.81;;;11.22;87.36
75418;BME280;63997;52.112;5.420;2023-03-31T14:54:51;99244.34;;;11.29;87.82
75418;BME280;63997;52.112;5.420;2023-03-31T14:57:19;99243.34;;;11.41;87.48
75418;BME280;63997;52.112;5.420;2023-03-31T14:59:51;99242.69;;;11.51;87.51
75418;BME280;63997;52.112;5.420;2023-03-31T15:02:29;99244.66;;;11.58;87.20
75418;BME280;63997;52.112;5.420;2023-03-31T15:04:56;99245.88;;;11.64;86.88
75418;BME280;63997;52.112;5.420;2023-03-31T15:07:23;99245.88;;;11.64;86.76
75418;BME280;63997;52.112;5.420;2023-03-31T15:09:51;99237.50;;;11.65;86.94
75418;BME280;63997;52.112;5.420;2023-03-31T15:12:19;99235.59;;;11.62;87.03
75418;BME280;63997;52.112;5.420;2023-03-31T15:14:54;99242.00;;;11.58;86.51
75418;BME280;63997;52.112;5.420;2023-03-31T15:17:38;99236.94;;;11.49;86.23
75418;BME280;63997;52.112;5.420;2023-03-31T15:22:55;99225.78;;;11.36;86.38
75418;BME280;63997;52.112;5.420;2023-03-31T15:25:29;99230.28;;;11.32;86.82